sensor_id;sensor_type;location;lat;lon;timestamp;P1;durP1;ratioP1;P2;durP2;ratioP2
7450;SDS011;3767;42.688;23.360;2023-02-25T00:00:08;75.90;;;35.53;;
7450;SDS011;3767;42.688;23.360;2023-02-25T00:02:43;64.30;;;32.30;;
7450;SDS011;3767;42.688;23.360;2023-02-25T00:05:11;64.03;;;30.47;;
7450;SDS011;3767;42.688;23.360;2023-02-25T00:07:38;59.40;;;29.70;;
7450;SDS011;3767;42.688;23.360;2023-02-25T00:10:05;57.70;;;28.67;;
7450;SDS011;3767;42.688;23.360;2023-02-25T00:12:32;54.23;;;25.23;;
7450;SDS011;3767;42.688;23.360;2023-02-25T00:14:58;46.53;;;21.60;;
7450;SDS011;3767;42.688;23.360;2023-02-25T00:17:25;45.93;;;22.33;;
7450;SDS011;3767;42.688;23.360;2023-02-25T00:19:51;41.67;;;20.47;;
7450;SDS011;3767;42.688;23.360;2023-02-25T00:22:20;42.07;;;21.37;;
7450;SDS011;3767;42.688;23.360;2023-02-25T00:24:52;41.83;;;20.17;;
7450;SDS011;3767;42.688;23.360;2023-02-25T00:27:19;38.40;;;18.93;;
7450;SDS011;3767;42.688;23.360;2023-02-25T00:29:45;41.63;;;19.47;;
7450;SDS011;3767;42.688;23.360;2023-02-25T00:32:12;41.33;;;20.17;;
7450;SDS011;3767;42.688;23.360;2023-02-25T00:34:38;39.90;;;20.33;;
7450;SDS011;3767;42.688;23.360;2023-02-25T00:37:05;38.53;;;20.00;;
7450;SDS011;3767;42.688;23.360;2023-02-25T00:39:33;38.53;;;18.97;;
7450;SDS011;3767;42.688;23.360;2023-02-25T00:42:07;39.40;;;19.50;;
7450;SDS011;3767;42.688;23.360;2023-02-25T00:44:34;43.20;;;19.20;;
7450;SDS011;3767;42.688;23.360;2023-02-25T00:47:00;42.60;;;20.40;;
7450;SDS011;3767;42.688;23.360;2023-02-25T00:49:27;42.43;;;19.83;;
7450;SDS011;3767;42.688;23.360;2023-02-25T00:51:53;41.10;;;19.37;;
7450;SDS011;3767;42.688;23.360;2023-02-25T00:54:21;40.00;;;18.67;;
7450;SDS011;3767;42.688;23.360;2023-02-25T00:56:49;37.47;;;18.33;;
7450;SDS011;3767;42.688;23.360;2023-02-25T00:59:15;37.33;;;20.03;;
7450;SDS011;3767;42.688;23.360;2023-02-25T01:01:42;38.00;;;19.13;;
7450;SDS011;3767;42.688;23.360;2023-02-25T01:04:08;36.43;;;18.70;;
7450;SDS011;3767;42.688;23.360;2023-02-25T01:06:35;41.17;;;19.17;;
7450;SDS011;3767;42.688;23.360;2023-02-25T01:09:03;40.20;;;19.07;;
7450;SDS011;3767;42.688;23.360;2023-02-25T01:11:30;36.83;;;19.27;;
7450;SDS011;3767;42.688;23.360;2023-02-25T01:13:59;37.43;;;18.83;;
7450;SDS011;3767;42.688;23.360;2023-02-25T01:16:27;37.40;;;17.80;;
7450;SDS011;3767;42.688;23.360;2023-02-25T01:18:55;38.33;;;18.13;;
7450;SDS011;3767;42.688;23.360;2023-02-25T01:21:22;37.23;;;18.50;;
7450;SDS011;3767;42.688;23.360;2023-02-25T01:23:53;35.67;;;17.40;;
7450;SDS011;3767;42.688;23.360;2023-02-25T01:26:22;36.00;;;17.33;;
7450;SDS011;3767;42.688;23.360;2023-02-25T01:28:48;34.50;;;17.13;;
7450;SDS011;3767;42.688;23.360;2023-02-25T01:31:17;37.43;;;18.43;;
7450;SDS011;3767;42.688;23.360;2023-02-25T01:33:44;35.73;;;17.83;;
7450;SDS011;3767;42.688;23.360;2023-02-25T01:36:10;36.33;;;17.03;;
7450;SDS011;3767;42.688;23.360;2023-02-25T01:38:37;30.23;;;15.50;;
7450;SDS011;3767;42.688;23.360;2023-02-25T01:41:03;35.20;;;16.87;;
7450;SDS011;3767;42.688;23.360;2023-02-25T01:43:29;35.47;;;18.07;;
7450;SDS011;3767;42.688;23.360;2023-02-25T01:45:56;35.40;;;16.33;;
7450;SDS011;3767;42.688;23.360;2023-02-25T01:48:24;30.43;;;15.13;;
7450;SDS011;3767;42.688;23.360;2023-02-25T01:50:54;35.63;;;17.40;;
7450;SDS011;3767;42.688;23.360;2023-02-25T01:53:24;31.27;;;15.80;;
7450;SDS011;3767;42.688;23.360;2023-02-25T01:55:52;33.07;;;15.13;;
7450;SDS011;3767;42.688;23.360;2023-02-25T01:58:18;33.07;;;15.83;;
7450;SDS011;3767;42.688;23.360;2023-02-25T02:00:46;28.40;;;15.60;;
7450;SDS011;3767;42.688;23.360;2023-02-25T02:03:12;35.03;;;15.50;;
7450;SDS011;3767;42.688;23.360;2023-02-25T02:05:55;33.23;;;14.30;;
7450;SDS011;3767;42.688;23.360;2023-02-25T02:08:24;26.53;;;13.73;;
7450;SDS011;3767;42.688;23.360;2023-02-25T02:10:51;29.43;;;14.07;;
7450;SDS011;3767;42.688;23.360;2023-02-25T02:13:18;25.77;;;12.90;;
7450;SDS011;3767;42.688;23.360;2023-02-25T02:15:46;29.93;;;14.40;;
7450;SDS011;3767;42.688;23.360;2023-02-25T02:18:16;30.37;;;14.67;;
7450;SDS011;3767;42.688;23.360;2023-02-25T02:20:45;25.03;;;13.23;;
7450;SDS011;3767;42.688;23.360;2023-02-25T02:29:03;32.20;;;14.47;;
7450;SDS011;3767;42.688;23.360;2023-02-25T02:34:30;24.60;;;13.67;;
7450;SDS011;3767;42.688;23.360;2023-02-25T02:37:03;27.17;;;14.30;;
7450;SDS011;3767;42.688;23.360;2023-02-25T02:39:32;23.63;;;13.57;;
7450;SDS011;3767;42.688;23.360;2023-02-25T02:42:04;27.57;;;13.97;;
7450;SDS011;3767;42.688;23.360;2023-02-25T02:44:36;24.93;;;14.43;;
7450;SDS011;3767;42.688;23.360;2023-02-25T02:47:03;25.57;;;13.97;;
7450;SDS011;3767;42.688;23.360;2023-02-25T02:49:35;25.90;;;13.93;;
7450;SDS011;3767;42.688;23.360;2023-02-25T02:52:02;30.77;;;14.47;;
7450;SDS011;3767;42.688;23.360;2023-02-25T02:54:30;30.17;;;14.50;;
7450;SDS011;3767;42.688;23.360;2023-02-25T02:56:57;30.00;;;16.37;;
7450;SDS011;3767;42.688;23.360;2023-02-25T02:59:26;36.30;;;16.20;;
7450;SDS011;3767;42.688;23.360;2023-02-25T03:01:53;36.17;;;16.10;;
7450;SDS011;3767;42.688;23.360;2023-02-25T03:04:24;38.83;;;17.00;;
7450;SDS011;3767;42.688;23.360;2023-02-25T03:06:55;34.33;;;16.43;;
7450;SDS011;3767;42.688;23.360;2023-02-25T03:09:23;28.30;;;14.83;;
7450;SDS011;3767;42.688;23.360;2023-02-25T03:11:50;29.87;;;16.00;;
7450;SDS011;3767;42.688;23.360;2023-02-25T03:14:17;35.70;;;16.47;;
7450;SDS011;3767;42.688;23.360;2023-02-25T03:16:45;30.23;;;15.03;;
7450;SDS011;3767;42.688;23.360;2023-02-25T03:19:12;34.17;;;16.17;;
7450;SDS011;3767;42.688;23.360;2023-02-25T03:21:41;26.83;;;14.53;;
7450;SDS011;3767;42.688;23.360;2023-02-25T03:24:09;31.60;;;14.37;;
7450;SDS011;3767;42.688;23.360;2023-02-25T03:26:38;30.63;;;16.00;;
7450;SDS011;3767;42.688;23.360;2023-02-25T03:29:09;27.93;;;14.83;;
7450;SDS011;3767;42.688;23.360;2023-02-25T03:31:39;29.40;;;15.83;;
7450;SDS011;3767;42.688;23.360;2023-02-25T03:34:08;29.33;;;15.60;;
7450;SDS011;3767;42.688;23.360;2023-02-25T03:36:37;30.03;;;15.07;;
7450;SDS011;3767;42.688;23.360;2023-02-25T03:39:07;36.17;;;15.47;;
7450;SDS011;3767;42.688;23.360;2023-02-25T03:41:37;39.17;;;16.40;;
7450;SDS011;3767;42.688;23.360;2023-02-25T03:44:05;29.77;;;15.73;;
7450;SDS011;3767;42.688;23.360;2023-02-25T03:46:32;33.00;;;16.03;;
7450;SDS011;3767;42.688;23.360;2023-02-25T03:49:00;30.67;;;15.20;;
7450;SDS011;3767;42.688;23.360;2023-02-25T03:51:28;26.73;;;14.73;;
7450;SDS011;3767;42.688;23.360;2023-02-25T03:53:55;31.83;;;15.97;;
7450;SDS011;3767;42.688;23.360;2023-02-25T03:56:22;38.03;;;16.40;;
7450;SDS011;3767;42.688;23.360;2023-02-25T03:58:50;32.50;;;16.67;;
7450;SDS011;3767;42.688;23.360;2023-02-25T04:01:17;31.47;;;15.77;;
7450;SDS011;3767;42.688;23.360;2023-02-25T04:03:44;31.63;;;15.60;;
7450;SDS011;3767;42.688;23.360;2023-02-25T04:06:11;32.00;;;15.73;;
7450;SDS011;3767;42.688;23.360;2023-02-25T04:08:37;36.23;;;17.00;;
7450;SDS011;3767;42.688;23.360;2023-02-25T04:11:04;29.43;;;15.97;;
7450;SDS011;3767;42.688;23.360;2023-02-25T04:13:30;32.43;;;15.50;;
7450;SDS011;3767;42.688;23.360;2023-02-25T04:15:58;31.97;;;16.17;;
7450;SDS011;3767;42.688;23.360;2023-02-25T04:18:25;29.80;;;15.33;;
7450;SDS011;3767;42.688;23.360;2023-02-25T04:20:51;31.83;;;16.47;;
7450;SDS011;3767;42.688;23.360;2023-02-25T04:23:19;37.27;;;17.67;;
7450;SDS011;3767;42.688;23.360;2023-02-25T04:25:45;32.87;;;16.37;;
7450;SDS011;3767;42.688;23.360;2023-02-25T04:28:11;30.83;;;16.57;;
7450;SDS011;3767;42.688;23.360;2023-02-25T04:30:38;32.60;;;16.40;;
7450;SDS011;3767;42.688;23.360;2023-02-25T04:33:06;32.90;;;16.10;;
7450;SDS011;3767;42.688;23.360;2023-02-25T04:35:32;34.00;;;16.43;;
7450;SDS011;3767;42.688;23.360;2023-02-25T04:37:59;27.83;;;15.83;;
7450;SDS011;3767;42.688;23.360;2023-02-25T04:40:25;31.47;;;16.53;;
7450;SDS011;3767;42.688;23.360;2023-02-25T04:42:52;32.57;;;16.47;;
7450;SDS011;3767;42.688;23.360;2023-02-25T04:45:18;28.00;;;16.30;;
7450;SDS011;3767;42.688;23.360;2023-02-25T04:47:49;31.63;;;16.50;;
7450;SDS011;3767;42.688;23.360;2023-02-25T04:50:17;34.87;;;17.30;;
7450;SDS011;3767;42.688;23.360;2023-02-25T04:52:44;31.10;;;15.90;;
7450;SDS011;3767;42.688;23.360;2023-02-25T04:55:11;37.80;;;17.30;;
7450;SDS011;3767;42.688;23.360;2023-02-25T04:57:37;31.43;;;16.03;;
7450;SDS011;3767;42.688;23.360;2023-02-25T05:00:07;35.10;;;17.13;;
7450;SDS011;3767;42.688;23.360;2023-02-25T05:02:34;34.40;;;16.37;;
7450;SDS011;3767;42.688;23.360;2023-02-25T05:05:00;32.90;;;16.27;;
7450;SDS011;3767;42.688;23.360;2023-02-25T05:07:28;35.40;;;16.23;;
7450;SDS011;3767;42.688;23.360;2023-02-25T05:09:55;30.00;;;16.37;;
7450;SDS011;3767;42.688;23.360;2023-02-25T05:12:22;35.90;;;16.53;;
7450;SDS011;3767;42.688;23.360;2023-02-25T05:14:48;32.37;;;16.50;;
7450;SDS011;3767;42.688;23.360;2023-02-25T05:17:15;31.23;;;16.23;;
7450;SDS011;3767;42.688;23.360;2023-02-25T05:19:42;32.07;;;16.83;;
7450;SDS011;3767;42.688;23.360;2023-02-25T05:22:08;37.13;;;16.37;;
7450;SDS011;3767;42.688;23.360;2023-02-25T05:24:37;36.20;;;18.30;;
7450;SDS011;3767;42.688;23.360;2023-02-25T05:27:03;39.93;;;18.90;;
7450;SDS011;3767;42.688;23.360;2023-02-25T05:29:33;37.87;;;19.57;;
7450;SDS011;3767;42.688;23.360;2023-02-25T05:32:00;29.80;;;17.43;;
7450;SDS011;3767;42.688;23.360;2023-02-25T05:34:26;38.23;;;19.57;;
7450;SDS011;3767;42.688;23.360;2023-02-25T05:36:53;38.63;;;20.17;;
7450;SDS011;3767;42.688;23.360;2023-02-25T05:39:19;46.27;;;21.57;;
7450;SDS011;3767;42.688;23.360;2023-02-25T05:41:47;46.17;;;21.57;;
7450;SDS011;3767;42.688;23.360;2023-02-25T05:44:15;42.97;;;21.83;;
7450;SDS011;3767;42.688;23.360;2023-02-25T05:46:42;46.53;;;22.30;;
7450;SDS011;3767;42.688;23.360;2023-02-25T05:49:09;43.20;;;22.03;;
7450;SDS011;3767;42.688;23.360;2023-02-25T05:51:35;46.83;;;21.20;;
7450;SDS011;3767;42.688;23.360;2023-02-25T05:54:02;49.97;;;24.20;;
7450;SDS011;3767;42.688;23.360;2023-02-25T05:56:28;44.50;;;22.30;;
7450;SDS011;3767;42.688;23.360;2023-02-25T05:58:56;46.50;;;21.80;;
7450;SDS011;3767;42.688;23.360;2023-02-25T06:01:23;39.00;;;21.07;;
7450;SDS011;3767;42.688;23.360;2023-02-25T06:03:51;46.53;;;21.27;;
7450;SDS011;3767;42.688;23.360;2023-02-25T06:06:22;44.10;;;21.43;;
7450;SDS011;3767;42.688;23.360;2023-02-25T06:08:49;48.77;;;22.27;;
7450;SDS011;3767;42.688;23.360;2023-02-25T06:11:17;41.13;;;20.87;;
7450;SDS011;3767;42.688;23.360;2023-02-25T06:13:43;43.53;;;21.53;;
7450;SDS011;3767;42.688;23.360;2023-02-25T06:16:11;43.67;;;21.03;;
7450;SDS011;3767;42.688;23.360;2023-02-25T06:18:38;37.87;;;19.30;;
7450;SDS011;3767;42.688;23.360;2023-02-25T06:21:05;41.30;;;18.77;;
7450;SDS011;3767;42.688;23.360;2023-02-25T06:23:32;43.33;;;19.93;;
7450;SDS011;3767;42.688;23.360;2023-02-25T06:25:59;40.90;;;19.47;;
7450;SDS011;3767;42.688;23.360;2023-02-25T06:28:26;40.33;;;19.30;;
7450;SDS011;3767;42.688;23.360;2023-02-25T06:30:53;38.53;;;19.90;;
7450;SDS011;3767;42.688;23.360;2023-02-25T06:33:20;37.03;;;19.57;;
7450;SDS011;3767;42.688;23.360;2023-02-25T06:35:49;40.30;;;20.40;;
7450;SDS011;3767;42.688;23.360;2023-02-25T06:38:15;37.53;;;19.40;;
7450;SDS011;3767;42.688;23.360;2023-02-25T06:40:42;34.23;;;19.07;;
7450;SDS011;3767;42.688;23.360;2023-02-25T06:43:09;35.27;;;18.77;;
7450;SDS011;3767;42.688;23.360;2023-02-25T06:45:35;35.70;;;18.57;;
7450;SDS011;3767;42.688;23.360;2023-02-25T06:48:01;38.37;;;19.17;;
7450;SDS011;3767;42.688;23.360;2023-02-25T06:50:29;39.23;;;18.93;;
7450;SDS011;3767;42.688;23.360;2023-02-25T06:52:56;33.97;;;18.73;;
7450;SDS011;3767;42.688;23.360;2023-02-25T06:55:22;42.67;;;18.10;;
7450;SDS011;3767;42.688;23.360;2023-02-25T06:57:49;157.33;;;83.57;;
7450;SDS011;3767;42.688;23.360;2023-02-25T07:00:16;36.77;;;18.43;;
7450;SDS011;3767;42.688;23.360;2023-02-25T07:02:42;33.87;;;16.80;;
7450;SDS011;3767;42.688;23.360;2023-02-25T07:05:09;44.57;;;17.10;;
7450;SDS011;3767;42.688;23.360;2023-02-25T07:07:37;33.30;;;15.37;;
7450;SDS011;3767;42.688;23.360;2023-02-25T07:10:03;32.27;;;14.90;;
7450;SDS011;3767;42.688;23.360;2023-02-25T07:12:30;31.63;;;16.00;;
7450;SDS011;3767;42.688;23.360;2023-02-25T07:14:57;34.40;;;16.17;;
7450;SDS011;3767;42.688;23.360;2023-02-25T07:17:24;32.10;;;15.43;;
7450;SDS011;3767;42.688;23.360;2023-02-25T07:19:50;28.10;;;13.27;;
7450;SDS011;3767;42.688;23.360;2023-02-25T07:22:17;27.60;;;14.43;;
7450;SDS011;3767;42.688;23.360;2023-02-25T07:24:45;41.10;;;15.53;;
7450;SDS011;3767;42.688;23.360;2023-02-25T07:27:11;31.43;;;13.97;;
7450;SDS011;3767;42.688;23.360;2023-02-25T07:29:38;24.43;;;14.13;;
7450;SDS011;3767;42.688;23.360;2023-02-25T07:32:05;27.73;;;13.40;;
7450;SDS011;3767;42.688;23.360;2023-02-25T07:34:33;28.07;;;14.17;;
7450;SDS011;3767;42.688;23.360;2023-02-25T07:36:59;27.30;;;13.87;;
7450;SDS011;3767;42.688;23.360;2023-02-25T07:39:26;31.03;;;14.47;;
7450;SDS011;3767;42.688;23.360;2023-02-25T07:41:53;27.73;;;14.03;;
7450;SDS011;3767;42.688;23.360;2023-02-25T07:44:20;33.77;;;13.70;;
7450;SDS011;3767;42.688;23.360;2023-02-25T07:46:46;29.13;;;13.80;;
7450;SDS011;3767;42.688;23.360;2023-02-25T07:49:13;28.37;;;13.57;;
7450;SDS011;3767;42.688;23.360;2023-02-25T07:51:39;26.13;;;13.27;;
7450;SDS011;3767;42.688;23.360;2023-02-25T07:54:06;34.53;;;14.43;;
7450;SDS011;3767;42.688;23.360;2023-02-25T07:56:32;33.90;;;13.37;;
7450;SDS011;3767;42.688;23.360;2023-02-25T07:59:00;25.97;;;13.73;;
7450;SDS011;3767;42.688;23.360;2023-02-25T08:01:28;26.33;;;13.13;;
7450;SDS011;3767;42.688;23.360;2023-02-25T08:03:56;28.20;;;13.20;;
7450;SDS011;3767;42.688;23.360;2023-02-25T08:06:23;29.43;;;12.80;;
7450;SDS011;3767;42.688;23.360;2023-02-25T08:08:51;22.80;;;12.27;;
7450;SDS011;3767;42.688;23.360;2023-02-25T08:11:19;24.80;;;12.17;;
7450;SDS011;3767;42.688;23.360;2023-02-25T08:13:46;23.67;;;11.70;;
7450;SDS011;3767;42.688;23.360;2023-02-25T08:16:15;27.77;;;12.63;;
7450;SDS011;3767;42.688;23.360;2023-02-25T08:18:42;30.37;;;13.27;;
7450;SDS011;3767;42.688;23.360;2023-02-25T08:21:10;30.03;;;15.33;;
7450;SDS011;3767;42.688;23.360;2023-02-25T08:23:37;25.27;;;12.73;;
7450;SDS011;3767;42.688;23.360;2023-02-25T08:26:04;26.13;;;13.20;;
7450;SDS011;3767;42.688;23.360;2023-02-25T08:28:30;23.07;;;12.17;;
7450;SDS011;3767;42.688;23.360;2023-02-25T08:30:57;26.13;;;13.07;;
7450;SDS011;3767;42.688;23.360;2023-02-25T08:33:28;29.47;;;13.93;;
7450;SDS011;3767;42.688;23.360;2023-02-25T08:35:55;29.17;;;14.37;;
7450;SDS011;3767;42.688;23.360;2023-02-25T08:38:21;30.50;;;14.43;;
7450;SDS011;3767;42.688;23.360;2023-02-25T08:40:48;33.93;;;13.77;;
7450;SDS011;3767;42.688;23.360;2023-02-25T08:43:14;32.40;;;15.17;;
7450;SDS011;3767;42.688;23.360;2023-02-25T08:45:41;29.07;;;15.77;;
7450;SDS011;3767;42.688;23.360;2023-02-25T08:48:07;34.63;;;16.60;;
7450;SDS011;3767;42.688;23.360;2023-02-25T08:50:35;37.47;;;16.27;;
7450;SDS011;3767;42.688;23.360;2023-02-25T08:53:02;34.13;;;15.30;;
7450;SDS011;3767;42.688;23.360;2023-02-25T08:55:28;34.57;;;17.00;;
7450;SDS011;3767;42.688;23.360;2023-02-25T08:57:55;35.40;;;16.57;;
7450;SDS011;3767;42.688;23.360;2023-02-25T09:00:21;40.37;;;16.20;;
7450;SDS011;3767;42.688;23.360;2023-02-25T09:02:49;37.60;;;16.03;;
7450;SDS011;3767;42.688;23.360;2023-02-25T09:05:15;39.10;;;16.27;;
7450;SDS011;3767;42.688;23.360;2023-02-25T09:07:43;36.33;;;15.23;;
7450;SDS011;3767;42.688;23.360;2023-02-25T09:10:10;32.93;;;15.50;;
7450;SDS011;3767;42.688;23.360;2023-02-25T09:12:37;31.30;;;13.93;;
7450;SDS011;3767;42.688;23.360;2023-02-25T09:15:06;33.53;;;15.57;;
7450;SDS011;3767;42.688;23.360;2023-02-25T09:17:33;40.40;;;14.93;;
7450;SDS011;3767;42.688;23.360;2023-02-25T09:20:00;30.33;;;14.53;;
7450;SDS011;3767;42.688;23.360;2023-02-25T09:22:30;37.40;;;15.03;;
7450;SDS011;3767;42.688;23.360;2023-02-25T09:24:59;42.83;;;15.63;;
7450;SDS011;3767;42.688;23.360;2023-02-25T09:27:25;33.30;;;14.87;;
7450;SDS011;3767;42.688;23.360;2023-02-25T09:29:52;38.23;;;17.00;;
7450;SDS011;3767;42.688;23.360;2023-02-25T09:32:19;32.93;;;15.97;;
7450;SDS011;3767;42.688;23.360;2023-02-25T09:34:46;37.47;;;16.47;;
7450;SDS011;3767;42.688;23.360;2023-02-25T09:37:14;34.97;;;16.03;;
7450;SDS011;3767;42.688;23.360;2023-02-25T09:39:40;40.60;;;16.00;;
7450;SDS011;3767;42.688;23.360;2023-02-25T09:42:09;37.07;;;16.80;;
7450;SDS011;3767;42.688;23.360;2023-02-25T09:44:37;35.20;;;16.57;;
7450;SDS011;3767;42.688;23.360;2023-02-25T09:47:05;36.10;;;16.80;;
7450;SDS011;3767;42.688;23.360;2023-02-25T09:49:35;39.27;;;16.43;;
7450;SDS011;3767;42.688;23.360;2023-02-25T09:52:03;36.00;;;16.37;;
7450;SDS011;3767;42.688;23.360;2023-02-25T09:54:32;35.20;;;13.93;;
7450;SDS011;3767;42.688;23.360;2023-02-25T09:57:02;30.63;;;12.40;;
7450;SDS011;3767;42.688;23.360;2023-02-25T09:59:31;32.33;;;13.07;;
7450;SDS011;3767;42.688;23.360;2023-02-25T10:01:58;35.90;;;13.27;;
7450;SDS011;3767;42.688;23.360;2023-02-25T10:04:33;25.13;;;10.07;;
7450;SDS011;3767;42.688;23.360;2023-02-25T10:07:05;29.10;;;9.60;;
7450;SDS011;3767;42.688;23.360;2023-02-25T10:09:33;26.83;;;10.70;;
7450;SDS011;3767;42.688;23.360;2023-02-25T10:12:05;26.97;;;11.60;;
7450;SDS011;3767;42.688;23.360;2023-02-25T10:14:45;34.80;;;12.13;;
7450;SDS011;3767;42.688;23.360;2023-02-25T10:17:18;31.83;;;12.33;;
7450;SDS011;3767;42.688;23.360;2023-02-25T10:19:51;77.07;;;14.53;;
7450;SDS011;3767;42.688;23.360;2023-02-25T10:22:30;30.20;;;12.13;;
7450;SDS011;3767;42.688;23.360;2023-02-25T10:24:59;29.90;;;11.93;;
7450;SDS011;3767;42.688;23.360;2023-02-25T10:27:28;32.50;;;11.87;;
7450;SDS011;3767;42.688;23.360;2023-02-25T10:29:58;25.97;;;12.13;;
7450;SDS011;3767;42.688;23.360;2023-02-25T10:32:27;33.07;;;14.27;;
7450;SDS011;3767;42.688;23.360;2023-02-25T10:34:57;40.93;;;12.83;;
7450;SDS011;3767;42.688;23.360;2023-02-25T10:37:25;31.13;;;12.73;;
7450;SDS011;3767;42.688;23.360;2023-02-25T10:39:54;36.90;;;12.10;;
7450;SDS011;3767;42.688;23.360;2023-02-25T10:42:21;29.23;;;11.60;;
7450;SDS011;3767;42.688;23.360;2023-02-25T10:44:48;40.87;;;11.37;;
7450;SDS011;3767;42.688;23.360;2023-02-25T10:47:17;31.17;;;11.83;;
7450;SDS011;3767;42.688;23.360;2023-02-25T10:52:27;31.90;;;10.40;;
7450;SDS011;3767;42.688;23.360;2023-02-25T10:54:53;33.83;;;10.30;;
7450;SDS011;3767;42.688;23.360;2023-02-25T10:57:22;26.27;;;9.23;;
7450;SDS011;3767;42.688;23.360;2023-02-25T10:59:57;29.43;;;10.43;;
7450;SDS011;3767;42.688;23.360;2023-02-25T11:02:25;26.20;;;9.67;;
7450;SDS011;3767;42.688;23.360;2023-02-25T11:04:52;23.57;;;9.43;;
7450;SDS011;3767;42.688;23.360;2023-02-25T11:07:23;29.03;;;9.90;;
7450;SDS011;3767;42.688;23.360;2023-02-25T11:10:03;29.83;;;9.13;;
7450;SDS011;3767;42.688;23.360;2023-02-25T11:12:31;39.73;;;9.13;;
7450;SDS011;3767;42.688;23.360;2023-02-25T11:15:15;38.07;;;9.43;;
7450;SDS011;3767;42.688;23.360;2023-02-25T11:17:44;32.33;;;9.10;;
7450;SDS011;3767;42.688;23.360;2023-02-25T11:20:13;35.10;;;9.13;;
7450;SDS011;3767;42.688;23.360;2023-02-25T11:22:46;22.40;;;8.57;;
7450;SDS011;3767;42.688;23.360;2023-02-25T11:25:16;42.33;;;9.77;;
7450;SDS011;3767;42.688;23.360;2023-02-25T11:27:44;27.60;;;8.37;;
7450;SDS011;3767;42.688;23.360;2023-02-25T11:30:15;31.37;;;8.43;;
7450;SDS011;3767;42.688;23.360;2023-02-25T11:32:47;26.93;;;8.20;;
7450;SDS011;3767;42.688;23.360;2023-02-25T11:35:18;26.93;;;7.83;;
7450;SDS011;3767;42.688;23.360;2023-02-25T11:37:45;31.40;;;8.27;;
7450;SDS011;3767;42.688;23.360;2023-02-25T11:40:19;29.13;;;6.80;;
7450;SDS011;3767;42.688;23.360;2023-02-25T11:42:51;27.87;;;7.03;;
7450;SDS011;3767;42.688;23.360;2023-02-25T11:45:24;29.07;;;5.77;;
7450;SDS011;3767;42.688;23.360;2023-02-25T11:47:54;20.60;;;5.00;;
7450;SDS011;3767;42.688;23.360;2023-02-25T11:50:22;20.00;;;5.13;;
7450;SDS011;3767;42.688;23.360;2023-02-25T11:52:53;19.70;;;5.30;;
7450;SDS011;3767;42.688;23.360;2023-02-25T11:55:23;36.03;;;7.20;;
7450;SDS011;3767;42.688;23.360;2023-02-25T11:58:00;23.87;;;6.97;;
7450;SDS011;3767;42.688;23.360;2023-02-25T12:00:31;23.93;;;7.30;;
7450;SDS011;3767;42.688;23.360;2023-02-25T12:03:17;32.50;;;7.87;;
7450;SDS011;3767;42.688;23.360;2023-02-25T12:05:55;34.30;;;7.83;;
7450;SDS011;3767;42.688;23.360;2023-02-25T12:08:36;24.07;;;6.67;;
7450;SDS011;3767;42.688;23.360;2023-02-25T12:13:56;31.73;;;6.47;;
7450;SDS011;3767;42.688;23.360;2023-02-25T12:24:59;29.03;;;6.20;;
7450;SDS011;3767;42.688;23.360;2023-02-25T12:30:18;24.07;;;5.57;;
7450;SDS011;3767;42.688;23.360;2023-02-25T12:32:53;19.40;;;5.03;;
7450;SDS011;3767;42.688;23.360;2023-02-25T12:35:29;21.97;;;5.03;;
7450;SDS011;3767;42.688;23.360;2023-02-25T12:38:06;23.20;;;5.63;;
7450;SDS011;3767;42.688;23.360;2023-02-25T12:40:44;27.23;;;5.83;;
7450;SDS011;3767;42.688;23.360;2023-02-25T12:43:18;20.27;;;5.63;;
7450;SDS011;3767;42.688;23.360;2023-02-25T12:48:40;28.50;;;5.83;;
7450;SDS011;3767;42.688;23.360;2023-02-25T12:51:24;27.87;;;5.93;;
7450;SDS011;3767;42.688;23.360;2023-02-25T12:53:54;22.53;;;5.60;;
7450;SDS011;3767;42.688;23.360;2023-02-25T12:59:13;43.27;;;5.50;;
7450;SDS011;3767;42.688;23.360;2023-02-25T13:01:50;25.67;;;5.27;;
7450;SDS011;3767;42.688;23.360;2023-02-25T13:04:22;19.90;;;4.87;;
7450;SDS011;3767;42.688;23.360;2023-02-25T13:09:46;25.37;;;5.20;;
7450;SDS011;3767;42.688;23.360;2023-02-25T13:12:30;19.53;;;4.70;;
7450;SDS011;3767;42.688;23.360;2023-02-25T13:15:03;26.57;;;4.67;;
7450;SDS011;3767;42.688;23.360;2023-02-25T13:17:41;26.13;;;5.33;;
7450;SDS011;3767;42.688;23.360;2023-02-25T13:20:23;17.77;;;4.43;;
7450;SDS011;3767;42.688;23.360;2023-02-25T13:22:55;19.10;;;5.17;;
7450;SDS011;3767;42.688;23.360;2023-02-25T13:25:23;21.07;;;6.20;;
7450;SDS011;3767;42.688;23.360;2023-02-25T13:28:00;19.97;;;5.23;;
7450;SDS011;3767;42.688;23.360;2023-02-25T13:30:42;16.70;;;5.60;;
7450;SDS011;3767;42.688;23.360;2023-02-25T13:33:24;18.60;;;5.87;;
7450;SDS011;3767;42.688;23.360;2023-02-25T13:35:55;29.20;;;5.93;;
7450;SDS011;3767;42.688;23.360;2023-02-25T13:38:30;21.80;;;5.93;;
7450;SDS011;3767;42.688;23.360;2023-02-25T13:41:06;18.97;;;5.37;;
7450;SDS011;3767;42.688;23.360;2023-02-25T13:43:44;26.53;;;6.00;;
7450;SDS011;3767;42.688;23.360;2023-02-25T13:46:19;25.30;;;6.20;;
7450;SDS011;3767;42.688;23.360;2023-02-25T13:49:07;20.37;;;4.83;;
7450;SDS011;3767;42.688;23.360;2023-02-25T13:51:43;15.73;;;4.33;;
7450;SDS011;3767;42.688;23.360;2023-02-25T13:54:21;19.37;;;4.00;;
7450;SDS011;3767;42.688;23.360;2023-02-25T13:56:55;14.30;;;3.87;;
7450;SDS011;3767;42.688;23.360;2023-02-25T13:59:42;19.33;;;3.83;;
7450;SDS011;3767;42.688;23.360;2023-02-25T14:02:24;13.40;;;3.93;;
7450;SDS011;3767;42.688;23.360;2023-02-25T14:05:03;16.10;;;4.00;;
7450;SDS011;3767;42.688;23.360;2023-02-25T14:10:36;17.70;;;4.07;;
7450;SDS011;3767;42.688;23.360;2023-02-25T14:15:50;15.83;;;4.27;;
7450;SDS011;3767;42.688;23.360;2023-02-25T14:18:28;19.63;;;4.17;;
7450;SDS011;3767;42.688;23.360;2023-02-25T14:21:02;16.20;;;4.13;;
7450;SDS011;3767;42.688;23.360;2023-02-25T14:23:32;24.00;;;4.40;;
7450;SDS011;3767;42.688;23.360;2023-02-25T14:26:13;19.83;;;4.43;;
7450;SDS011;3767;42.688;23.360;2023-02-25T14:28:42;17.07;;;4.43;;
7450;SDS011;3767;42.688;23.360;2023-02-25T14:31:16;16.83;;;4.17;;
7450;SDS011;3767;42.688;23.360;2023-02-25T14:33:53;19.83;;;4.13;;
7450;SDS011;3767;42.688;23.360;2023-02-25T14:36:32;22.43;;;4.70;;
7450;SDS011;3767;42.688;23.360;2023-02-25T14:39:14;24.67;;;4.23;;
7450;SDS011;3767;42.688;23.360;2023-02-25T14:41:49;16.03;;;4.00;;
7450;SDS011;3767;42.688;23.360;2023-02-25T14:44:19;17.33;;;4.40;;
7450;SDS011;3767;42.688;23.360;2023-02-25T14:46:50;19.93;;;4.70;;
7450;SDS011;3767;42.688;23.360;2023-02-25T14:49:20;18.60;;;5.07;;
7450;SDS011;3767;42.688;23.360;2023-02-25T14:51:56;19.00;;;5.20;;
7450;SDS011;3767;42.688;23.360;2023-02-25T14:54:46;22.27;;;4.00;;
7450;SDS011;3767;42.688;23.360;2023-02-25T14:57:34;26.10;;;5.17;;
7450;SDS011;3767;42.688;23.360;2023-02-25T15:00:24;20.37;;;5.50;;
7450;SDS011;3767;42.688;23.360;2023-02-25T15:03:09;23.67;;;6.40;;
7450;SDS011;3767;42.688;23.360;2023-02-25T15:05:47;22.37;;;5.50;;
7450;SDS011;3767;42.688;23.360;2023-02-25T15:08:20;30.60;;;7.00;;
7450;SDS011;3767;42.688;23.360;2023-02-25T15:10:52;21.80;;;5.60;;
7450;SDS011;3767;42.688;23.360;2023-02-25T15:21:39;17.03;;;4.97;;
7450;SDS011;3767;42.688;23.360;2023-02-25T15:24:09;22.27;;;4.97;;
7450;SDS011;3767;42.688;23.360;2023-02-25T15:26:41;21.93;;;6.93;;
7450;SDS011;3767;42.688;23.360;2023-02-25T15:29:17;21.73;;;4.43;;
7450;SDS011;3767;42.688;23.360;2023-02-25T15:31:48;18.67;;;4.90;;
7450;SDS011;3767;42.688;23.360;2023-02-25T15:34:34;18.53;;;4.80;;
7450;SDS011;3767;42.688;23.360;2023-02-25T15:39:47;14.20;;;4.37;;
7450;SDS011;3767;42.688;23.360;2023-02-25T15:42:15;21.27;;;5.87;;